sensor_id;sensor_type;location;lat;lon;timestamp;pressure;altitude;pressure_sealevel;temperature;humidity
68859;BME280;55864;49.238;8.092;2023-03-03T00:01:35;99677.03;;;3.66;64.79
68859;BME280;55864;49.238;8.092;2023-03-03T00:03:35;99672.41;;;3.43;65.49
68859;BME280;55864;49.238;8.092;2023-03-03T00:05:37;99676.22;;;3.51;65.31
68859;BME280;55864;49.238;8.092;2023-03-03T00:07:38;99678.53;;;3.42;65.42
68859;BME280;55864;49.238;8.092;2023-03-03T00:09:38;99686.59;;;3.65;64.46
68859;BME280;55864;49.238;8.092;2023-03-03T00:11:39;99687.91;;;3.58;64.79
68859;BME280;55864;49.238;8.092;2023-03-03T00:13:44;99686.47;;;3.11;66.29
68859;BME280;55864;49.238;8.092;2023-03-03T00:15:45;99684.91;;;2.78;67.52
68859;BME280;55864;49.238;8.092;2023-03-03T00:17:46;99683.50;;;2.73;67.37
68859;BME280;55864;49.238;8.092;2023-03-03T00:19:47;99686.66;;;3.08;67.06
68859;BME280;55864;49.238;8.092;2023-03-03T00:21:50;99689.47;;;3.33;65.54
68859;BME280;55864;49.238;8.092;2023-03-03T00:23:51;99688.19;;;3.40;65.33
68859;BME280;55864;49.238;8.092;2023-03-03T00:25:53;99693.81;;;3.46;65.29
68859;BME280;55864;49.238;8.092;2023-03-03T00:27:54;99678.44;;;3.43;64.87
68859;BME280;55864;49.238;8.092;2023-03-03T00:29:55;99687.34;;;3.39;64.61
68859;BME280;55864;49.238;8.092;2023-03-03T00:34:25;99695.13;;;3.25;65.33
68859;BME280;55864;49.238;8.092;2023-03-03T00:36:29;99684.84;;;3.38;65.22
68859;BME280;55864;49.238;8.092;2023-03-03T00:38:33;99691.69;;;3.39;64.65
68859;BME280;55864;49.238;8.092;2023-03-03T00:40:35;99689.00;;;3.40;64.32
68859;BME280;55864;49.238;8.092;2023-03-03T00:42:36;99699.66;;;3.22;65.02
68859;BME280;55864;49.238;8.092;2023-03-03T00:44:40;99699.28;;;3.28;65.54
68859;BME280;55864;49.238;8.092;2023-03-03T00:46:41;99704.41;;;3.00;66.70
68859;BME280;55864;49.238;8.092;2023-03-03T00:48:42;99697.13;;;3.20;65.88
68859;BME280;55864;49.238;8.092;2023-03-03T00:50:43;99705.84;;;3.33;65.29
68859;BME280;55864;49.238;8.092;2023-03-03T00:52:45;99701.50;;;3.20;65.30
68859;BME280;55864;49.238;8.092;2023-03-03T00:54:51;99699.72;;;3.06;66.27
68859;BME280;55864;49.238;8.092;2023-03-03T00:56:51;99700.75;;;3.32;64.97
68859;BME280;55864;49.238;8.092;2023-03-03T00:58:53;99703.00;;;3.38;64.62
68859;BME280;55864;49.238;8.092;2023-03-03T01:00:56;99701.25;;;3.38;63.61
68859;BME280;55864;49.238;8.092;2023-03-03T01:03:05;99705.22;;;3.30;64.73
68859;BME280;55864;49.238;8.092;2023-03-03T01:05:07;99702.00;;;3.40;63.51
68859;BME280;55864;49.238;8.092;2023-03-03T01:07:09;99700.41;;;3.38;63.98
68859;BME280;55864;49.238;8.092;2023-03-03T01:09:10;99691.50;;;3.28;64.06
68859;BME280;55864;49.238;8.092;2023-03-03T01:11:14;99694.09;;;3.28;64.56
68859;BME280;55864;49.238;8.092;2023-03-03T01:13:17;99696.22;;;3.35;65.05
68859;BME280;55864;49.238;8.092;2023-03-03T01:15:25;99696.97;;;3.23;64.64
68859;BME280;55864;49.238;8.092;2023-03-03T01:17:26;99689.72;;;3.28;64.05
68859;BME280;55864;49.238;8.092;2023-03-03T01:19:26;99693.44;;;3.24;64.77
68859;BME280;55864;49.238;8.092;2023-03-03T01:21:27;99688.72;;;3.31;64.29
68859;BME280;55864;49.238;8.092;2023-03-03T01:23:27;99689.00;;;3.26;64.25
68859;BME280;55864;49.238;8.092;2023-03-03T01:25:28;99690.09;;;3.22;64.37
68859;BME280;55864;49.238;8.092;2023-03-03T01:27:30;99686.75;;;3.20;64.58
68859;BME280;55864;49.238;8.092;2023-03-03T01:29:31;99690.63;;;3.13;65.38
68859;BME280;55864;49.238;8.092;2023-03-03T01:31:32;99687.78;;;2.74;65.69
68859;BME280;55864;49.238;8.092;2023-03-03T01:33:33;99688.31;;;3.09;64.86
68859;BME280;55864;49.238;8.092;2023-03-03T01:35:34;99687.09;;;3.14;64.94
68859;BME280;55864;49.238;8.092;2023-03-03T01:37:35;99684.59;;;3.13;64.88
68859;BME280;55864;49.238;8.092;2023-03-03T01:39:36;99685.19;;;2.74;66.24
68859;BME280;55864;49.238;8.092;2023-03-03T01:41:37;99691.84;;;3.08;65.44
68859;BME280;55864;49.238;8.092;2023-03-03T01:43:44;99687.53;;;2.93;65.76
68859;BME280;55864;49.238;8.092;2023-03-03T01:48:22;99687.56;;;3.07;65.01
68859;BME280;55864;49.238;8.092;2023-03-03T01:50:32;99685.16;;;3.04;64.66
68859;BME280;55864;49.238;8.092;2023-03-03T01:52:37;99688.00;;;2.99;65.34
68859;BME280;55864;49.238;8.092;2023-03-03T01:54:41;99681.91;;;3.00;65.37
68859;BME280;55864;49.238;8.092;2023-03-03T01:56:43;99686.00;;;3.04;64.92
68859;BME280;55864;49.238;8.092;2023-03-03T01:58:48;99686.69;;;2.78;66.32
68859;BME280;55864;49.238;8.092;2023-03-03T02:00:55;99685.50;;;2.98;65.70
68859;BME280;55864;49.238;8.092;2023-03-03T02:02:57;99681.41;;;2.79;66.87
68859;BME280;55864;49.238;8.092;2023-03-03T02:04:57;99682.59;;;2.88;65.68
68859;BME280;55864;49.238;8.092;2023-03-03T02:07:00;99687.03;;;2.86;65.70
68859;BME280;55864;49.238;8.092;2023-03-03T02:09:06;99683.94;;;2.95;65.49
68859;BME280;55864;49.238;8.092;2023-03-03T02:11:10;99688.44;;;2.92;65.32
68859;BME280;55864;49.238;8.092;2023-03-03T02:13:12;99685.50;;;2.98;65.41
68859;BME280;55864;49.238;8.092;2023-03-03T02:15:18;99681.22;;;2.53;66.94
68859;BME280;55864;49.238;8.092;2023-03-03T02:17:19;99684.22;;;2.61;66.90
68859;BME280;55864;49.238;8.092;2023-03-03T02:19:24;99677.22;;;2.77;65.77
68859;BME280;55864;49.238;8.092;2023-03-03T02:21:27;99680.19;;;2.85;64.95
68859;BME280;55864;49.238;8.092;2023-03-03T02:23:29;99673.25;;;2.85;65.00
68859;BME280;55864;49.238;8.092;2023-03-03T02:25:40;99679.28;;;2.56;66.06
68859;BME280;55864;49.238;8.092;2023-03-03T02:27:45;99681.13;;;2.54;66.73
68859;BME280;55864;49.238;8.092;2023-03-03T02:29:46;99676.59;;;2.42;66.60
68859;BME280;55864;49.238;8.092;2023-03-03T02:31:46;99676.47;;;2.75;65.43
68859;BME280;55864;49.238;8.092;2023-03-03T02:33:50;99676.94;;;2.81;65.65
68859;BME280;55864;49.238;8.092;2023-03-03T02:35:54;99678.22;;;2.74;65.25
68859;BME280;55864;49.238;8.092;2023-03-03T02:37:54;99675.59;;;2.45;66.44
68859;BME280;55864;49.238;8.092;2023-03-03T02:39:57;99678.09;;;2.46;66.72
68859;BME280;55864;49.238;8.092;2023-03-03T02:41:59;99681.75;;;2.73;65.71
68859;BME280;55864;49.238;8.092;2023-03-03T02:44:13;99684.66;;;2.22;67.58
68859;BME280;55864;49.238;8.092;2023-03-03T02:46:14;99678.78;;;2.50;66.89
68859;BME280;55864;49.238;8.092;2023-03-03T02:48:14;99683.94;;;2.50;66.36
68859;BME280;55864;49.238;8.092;2023-03-03T02:50:15;99681.97;;;2.39;66.74
68859;BME280;55864;49.238;8.092;2023-03-03T02:52:15;99676.13;;;2.51;66.74
68859;BME280;55864;49.238;8.092;2023-03-03T02:54:21;99674.84;;;2.58;66.30
68859;BME280;55864;49.238;8.092;2023-03-03T02:56:22;99681.09;;;2.70;66.20
68859;BME280;55864;49.238;8.092;2023-03-03T02:58:22;99683.78;;;2.68;65.33
68859;BME280;55864;49.238;8.092;2023-03-03T03:00:24;99684.47;;;2.56;66.22
68859;BME280;55864;49.238;8.092;2023-03-03T03:02:25;99682.31;;;2.33;67.35
68859;BME280;55864;49.238;8.092;2023-03-03T03:04:26;99682.81;;;2.55;66.29
68859;BME280;55864;49.238;8.092;2023-03-03T03:06:27;99688.47;;;2.62;65.54
68859;BME280;55864;49.238;8.092;2023-03-03T03:08:28;99678.72;;;2.51;65.81
68859;BME280;55864;49.238;8.092;2023-03-03T03:10:35;99683.91;;;2.51;65.81
68859;BME280;55864;49.238;8.092;2023-03-03T03:12:36;99681.56;;;2.31;66.55
68859;BME280;55864;49.238;8.092;2023-03-03T03:14:37;99689.19;;;2.03;67.76
68859;BME280;55864;49.238;8.092;2023-03-03T03:16:41;99688.13;;;2.52;66.11
68859;BME280;55864;49.238;8.092;2023-03-03T03:18:41;99695.03;;;2.22;67.08
68859;BME280;55864;49.238;8.092;2023-03-03T03:20:42;99690.19;;;2.32;67.43
68859;BME280;55864;49.238;8.092;2023-03-03T03:22:43;99693.34;;;1.90;68.07
68859;BME280;55864;49.238;8.092;2023-03-03T03:24:44;99688.44;;;2.32;66.91
68859;BME280;55864;49.238;8.092;2023-03-03T03:26:45;99687.78;;;2.29;66.77
68859;BME280;55864;49.238;8.092;2023-03-03T03:28:46;99689.00;;;2.22;66.79
68859;BME280;55864;49.238;8.092;2023-03-03T03:30:49;99688.63;;;2.14;67.19
68859;BME280;55864;49.238;8.092;2023-03-03T03:32:51;99685.13;;;2.44;66.17
68859;BME280;55864;49.238;8.092;2023-03-03T03:34:52;99692.88;;;2.60;65.99
68859;BME280;55864;49.238;8.092;2023-03-03T03:36:54;99694.88;;;2.10;66.45
68859;BME280;55864;49.238;8.092;2023-03-03T03:38:56;99700.44;;;2.33;65.92
68859;BME280;55864;49.238;8.092;2023-03-03T03:40:57;99698.53;;;2.37;66.20
68859;BME280;55864;49.238;8.092;2023-03-03T03:42:58;99698.69;;;2.49;65.31
68859;BME280;55864;49.238;8.092;2023-03-03T03:44:58;99701.38;;;2.48;65.31
68859;BME280;55864;49.238;8.092;2023-03-03T03:46:59;99699.69;;;2.31;66.22
68859;BME280;55864;49.238;8.092;2023-03-03T03:49:01;99698.09;;;2.44;65.64
68859;BME280;55864;49.238;8.092;2023-03-03T03:51:02;99698.78;;;2.32;66.88
68859;BME280;55864;49.238;8.092;2023-03-03T03:53:03;99699.94;;;2.42;65.63
68859;BME280;55864;49.238;8.092;2023-03-03T03:55:05;99701.06;;;2.38;65.99
68859;BME280;55864;49.238;8.092;2023-03-03T03:57:06;99692.53;;;2.36;65.79
68859;BME280;55864;49.238;8.092;2023-03-03T03:59:07;99708.06;;;2.36;65.69
68859;BME280;55864;49.238;8.092;2023-03-03T04:01:08;99695.13;;;2.21;66.10
68859;BME280;55864;49.238;8.092;2023-03-03T04:03:15;99701.56;;;2.14;66.90
68859;BME280;55864;49.238;8.092;2023-03-03T04:05:19;99706.16;;;1.93;67.56
68859;BME280;55864;49.238;8.092;2023-03-03T04:07:20;99697.06;;;2.17;66.52
68859;BME280;55864;49.238;8.092;2023-03-03T04:09:21;99707.53;;;1.67;68.52
68859;BME280;55864;49.238;8.092;2023-03-03T04:11:22;99697.22;;;1.99;67.21
68859;BME280;55864;49.238;8.092;2023-03-03T04:13:23;99699.81;;;1.99;67.01
68859;BME280;55864;49.238;8.092;2023-03-03T04:15:24;99703.56;;;2.24;66.00
68859;BME280;55864;49.238;8.092;2023-03-03T04:17:25;99701.06;;;2.38;65.72
68859;BME280;55864;49.238;8.092;2023-03-03T04:19:27;99702.22;;;2.33;65.36
68859;BME280;55864;49.238;8.092;2023-03-03T04:21:28;99711.00;;;2.30;65.14
68859;BME280;55864;49.238;8.092;2023-03-03T04:23:32;99709.25;;;2.31;65.85
68859;BME280;55864;49.238;8.092;2023-03-03T04:25:35;99706.56;;;2.32;65.48
68859;BME280;55864;49.238;8.092;2023-03-03T04:27:37;99714.91;;;2.37;65.39
68859;BME280;55864;49.238;8.092;2023-03-03T04:29:39;99720.03;;;2.08;66.37
68859;BME280;55864;49.238;8.092;2023-03-03T04:31:39;99715.25;;;2.31;65.32
68859;BME280;55864;49.238;8.092;2023-03-03T04:33:42;99718.16;;;1.94;66.81
68859;BME280;55864;49.238;8.092;2023-03-03T04:35:43;99721.09;;;1.88;67.88
68859;BME280;55864;49.238;8.092;2023-03-03T04:37:45;99723.88;;;2.32;65.99
68859;BME280;55864;49.238;8.092;2023-03-03T04:39:46;99722.13;;;2.32;65.46
68859;BME280;55864;49.238;8.092;2023-03-03T04:41:47;99718.03;;;2.28;65.07
68859;BME280;55864;49.238;8.092;2023-03-03T04:43:48;99716.69;;;2.21;65.40
68859;BME280;55864;49.238;8.092;2023-03-03T04:45:48;99717.50;;;2.22;65.39
68859;BME280;55864;49.238;8.092;2023-03-03T04:47:49;99720.94;;;2.07;66.07
68859;BME280;55864;49.238;8.092;2023-03-03T04:49:51;99714.75;;;2.09;65.49
68859;BME280;55864;49.238;8.092;2023-03-03T04:51:51;99724.19;;;2.10;65.76
68859;BME280;55864;49.238;8.092;2023-03-03T04:53:53;99716.91;;;2.01;66.46
68859;BME280;55864;49.238;8.092;2023-03-03T04:55:54;99723.63;;;2.05;65.57
68859;BME280;55864;49.238;8.092;2023-03-03T04:57:55;99721.50;;;1.80;67.41
68859;BME280;55864;49.238;8.092;2023-03-03T04:59:56;99719.59;;;2.00;65.68
68859;BME280;55864;49.238;8.092;2023-03-03T05:01:57;99729.94;;;1.84;66.35
68859;BME280;55864;49.238;8.092;2023-03-03T05:03:58;99727.88;;;2.06;64.78
68859;BME280;55864;49.238;8.092;2023-03-03T05:05:58;99721.94;;;1.88;65.19
68859;BME280;55864;49.238;8.092;2023-03-03T05:07:59;99729.66;;;1.40;66.61
68859;BME280;55864;49.238;8.092;2023-03-03T05:10:01;99736.72;;;1.54;65.70
68859;BME280;55864;49.238;8.092;2023-03-03T05:12:02;99729.19;;;1.82;66.20
68859;BME280;55864;49.238;8.092;2023-03-03T05:14:03;99739.59;;;1.32;67.32
68859;BME280;55864;49.238;8.092;2023-03-03T05:16:04;99734.63;;;1.77;66.03
68859;BME280;55864;49.238;8.092;2023-03-03T05:18:04;99736.75;;;1.69;67.06
68859;BME280;55864;49.238;8.092;2023-03-03T05:20:06;99739.59;;;1.48;68.21
68859;BME280;55864;49.238;8.092;2023-03-03T05:22:07;99741.22;;;1.83;66.88
68859;BME280;55864;49.238;8.092;2023-03-03T05:24:09;99744.59;;;1.35;68.57
68859;BME280;55864;49.238;8.092;2023-03-03T05:26:11;99746.78;;;1.26;68.15
68859;BME280;55864;49.238;8.092;2023-03-03T05:28:11;99748.31;;;1.47;69.14
68859;BME280;55864;49.238;8.092;2023-03-03T05:30:12;99745.28;;;1.71;67.48
68859;BME280;55864;49.238;8.092;2023-03-03T05:32:13;99749.03;;;1.99;66.66
68859;BME280;55864;49.238;8.092;2023-03-03T05:34:14;99748.53;;;2.08;65.56
68859;BME280;55864;49.238;8.092;2023-03-03T05:36:14;99749.00;;;2.14;65.65
68859;BME280;55864;49.238;8.092;2023-03-03T05:38:15;99753.38;;;2.14;64.86
68859;BME280;55864;49.238;8.092;2023-03-03T05:40:15;99754.19;;;2.14;65.61
68859;BME280;55864;49.238;8.092;2023-03-03T05:42:17;99755.44;;;2.07;65.47
68859;BME280;55864;49.238;8.092;2023-03-03T05:44:18;99760.88;;;2.18;64.97
68859;BME280;55864;49.238;8.092;2023-03-03T05:46:18;99764.00;;;2.25;64.97
68859;BME280;55864;49.238;8.092;2023-03-03T05:48:19;99768.25;;;2.26;64.66
68859;BME280;55864;49.238;8.092;2023-03-03T05:50:21;99765.16;;;2.19;65.02
68859;BME280;55864;49.238;8.092;2023-03-03T05:52:22;99768.25;;;2.26;64.94
68859;BME280;55864;49.238;8.092;2023-03-03T05:54:22;99778.28;;;2.32;64.67
68859;BME280;55864;49.238;8.092;2023-03-03T05:56:23;99772.22;;;2.33;64.54
68859;BME280;55864;49.238;8.092;2023-03-03T05:58:25;99770.94;;;2.24;64.72
68859;BME280;55864;49.238;8.092;2023-03-03T06:00:26;99777.09;;;2.22;64.61
68859;BME280;55864;49.238;8.092;2023-03-03T06:02:26;99775.53;;;2.19;65.03
68859;BME280;55864;49.238;8.092;2023-03-03T06:04:27;99778.53;;;2.27;64.54
68859;BME280;55864;49.238;8.092;2023-03-03T06:06:27;99781.63;;;2.18;64.87
68859;BME280;55864;49.238;8.092;2023-03-03T06:08:28;99784.22;;;2.18;65.16
68859;BME280;55864;49.238;8.092;2023-03-03T06:10:28;99783.72;;;2.12;65.15
68859;BME280;55864;49.238;8.092;2023-03-03T06:12:32;99794.66;;;2.17;65.41
68859;BME280;55864;49.238;8.092;2023-03-03T06:14:34;99793.66;;;2.19;64.83
68859;BME280;55864;49.238;8.092;2023-03-03T06:16:34;99791.97;;;2.18;64.99
68859;BME280;55864;49.238;8.092;2023-03-03T06:18:35;99793.16;;;2.13;65.05
68859;BME280;55864;49.238;8.092;2023-03-03T06:20:36;99800.50;;;2.20;64.71
68859;BME280;55864;49.238;8.092;2023-03-03T06:22:36;99791.31;;;2.15;64.88
68859;BME280;55864;49.238;8.092;2023-03-03T06:24:37;99792.75;;;2.20;64.62
68859;BME280;55864;49.238;8.092;2023-03-03T06:26:37;99796.47;;;1.99;65.45
68859;BME280;55864;49.238;8.092;2023-03-03T06:28:38;99794.16;;;2.26;64.84
68859;BME280;55864;49.238;8.092;2023-03-03T06:30:40;99794.16;;;2.26;64.45
68859;BME280;55864;49.238;8.092;2023-03-03T06:32:40;99794.50;;;2.20;64.25
68859;BME280;55864;49.238;8.092;2023-03-03T06:34:41;99804.69;;;2.07;64.71
68859;BME280;55864;49.238;8.092;2023-03-03T06:36:41;99800.59;;;2.19;64.43
68859;BME280;55864;49.238;8.092;2023-03-03T06:38:42;99800.44;;;2.22;63.98
68859;BME280;55864;49.238;8.092;2023-03-03T06:40:43;99809.22;;;2.19;64.32
68859;BME280;55864;49.238;8.092;2023-03-03T06:42:44;99802.34;;;2.18;64.17
68859;BME280;55864;49.238;8.092;2023-03-03T06:44:45;99804.03;;;2.19;64.17
68859;BME280;55864;49.238;8.092;2023-03-03T06:46:47;99805.69;;;2.20;64.29
68859;BME280;55864;49.238;8.092;2023-03-03T06:48:47;99801.50;;;2.18;64.57
68859;BME280;55864;49.238;8.092;2023-03-03T06:50:48;99796.84;;;2.24;64.25
68859;BME280;55864;49.238;8.092;2023-03-03T06:52:49;99797.59;;;2.26;64.35
68859;BME280;55864;49.238;8.092;2023-03-03T06:54:53;99813.03;;;2.12;65.10
68859;BME280;55864;49.238;8.092;2023-03-03T06:56:57;99815.78;;;2.09;65.56
68859;BME280;55864;49.238;8.092;2023-03-03T06:58:59;99809.69;;;2.10;66.04
68859;BME280;55864;49.238;8.092;2023-03-03T07:01:01;99812.38;;;2.24;65.60
68859;BME280;55864;49.238;8.092;2023-03-03T07:03:07;99810.31;;;2.46;64.71
68859;BME280;55864;49.238;8.092;2023-03-03T07:05:14;99812.56;;;2.52;64.45
68859;BME280;55864;49.238;8.092;2023-03-03T07:07:17;99816.50;;;2.28;65.37
68859;BME280;55864;49.238;8.092;2023-03-03T07:09:20;99821.63;;;2.45;65.28
68859;BME280;55864;49.238;8.092;2023-03-03T07:11:22;99821.09;;;2.54;64.71
68859;BME280;55864;49.238;8.092;2023-03-03T07:13:25;99827.63;;;2.30;65.58
68859;BME280;55864;49.238;8.092;2023-03-03T07:15:33;99821.84;;;2.25;65.92
68859;BME280;55864;49.238;8.092;2023-03-03T07:17:35;99828.94;;;2.22;66.20
68859;BME280;55864;49.238;8.092;2023-03-03T07:19:42;99836.22;;;2.46;65.57
68859;BME280;55864;49.238;8.092;2023-03-03T07:21:44;99833.28;;;2.37;65.92
68859;BME280;55864;49.238;8.092;2023-03-03T07:23:46;99846.53;;;2.48;66.22
68859;BME280;55864;49.238;8.092;2023-03-03T07:25:47;99838.81;;;2.46;66.07
68859;BME280;55864;49.238;8.092;2023-03-03T07:27:48;99839.84;;;2.44;66.20
68859;BME280;55864;49.238;8.092;2023-03-03T07:29:49;99844.38;;;2.71;65.77
68859;BME280;55864;49.238;8.092;2023-03-03T07:31:51;99841.53;;;2.76;65.54
68859;BME280;55864;49.238;8.092;2023-03-03T07:33:53;99846.31;;;2.83;65.16
68859;BME280;55864;49.238;8.092;2023-03-03T07:35:57;99845.59;;;2.96;64.87
68859;BME280;55864;49.238;8.092;2023-03-03T07:37:58;99847.38;;;2.95;65.37
68859;BME280;55864;49.238;8.092;2023-03-03T07:40:00;99844.94;;;3.08;64.78
68859;BME280;55864;49.238;8.092;2023-03-03T07:42:14;99852.63;;;3.09;64.70
68859;BME280;55864;49.238;8.092;2023-03-03T07:44:25;99858.97;;;3.19;64.23
68859;BME280;55864;49.238;8.092;2023-03-03T07:48:37;99861.38;;;3.22;63.91
68859;BME280;55864;49.238;8.092;2023-03-03T07:50:39;99856.03;;;3.25;64.66
68859;BME280;55864;49.238;8.092;2023-03-03T07:52:43;99862.91;;;3.26;64.97
68859;BME280;55864;49.238;8.092;2023-03-03T07:54:50;99871.94;;;3.35;64.91
68859;BME280;55864;49.238;8.092;2023-03-03T07:56:51;99864.72;;;3.40;64.17
68859;BME280;55864;49.238;8.092;2023-03-03T07:58:53;99864.72;;;3.40;65.43
68859;BME280;55864;49.238;8.092;2023-03-03T08:03:26;99867.38;;;3.54;64.63
68859;BME280;55864;49.238;8.092;2023-03-03T08:05:29;99873.47;;;3.53;65.67
68859;BME280;55864;49.238;8.092;2023-03-03T08:07:30;99876.19;;;3.65;64.37
68859;BME280;55864;49.238;8.092;2023-03-03T08:09:45;99874.19;;;3.70;65.42
68859;BME280;55864;49.238;8.092;2023-03-03T08:11:50;99874.00;;;3.73;65.31
68859;BME280;55864;49.238;8.092;2023-03-03T08:13:54;99873.00;;;3.76;65.07
68859;BME280;55864;49.238;8.092;2023-03-03T08:15:59;99876.03;;;3.68;65.57
68859;BME280;55864;49.238;8.092;2023-03-03T08:18:00;99868.84;;;3.58;66.92
68859;BME280;55864;49.238;8.092;2023-03-03T08:22:28;99869.97;;;3.54;67.78
68859;BME280;55864;49.238;8.092;2023-03-03T08:24:30;99869.38;;;3.49;68.31
68859;BME280;55864;49.238;8.092;2023-03-03T08:26:32;99865.34;;;3.59;68.50
68859;BME280;55864;49.238;8.092;2023-03-03T08:28:33;99859.59;;;3.68;68.84
68859;BME280;55864;49.238;8.092;2023-03-03T08:30:33;99860.03;;;3.60;68.67
68859;BME280;55864;49.238;8.092;2023-03-03T08:32:34;99856.91;;;3.69;69.17
68859;BME280;55864;49.238;8.092;2023-03-03T08:34:34;99861.84;;;3.88;68.46
68859;BME280;55864;49.238;8.092;2023-03-03T08:36:35;99866.88;;;4.05;68.58
68859;BME280;55864;49.238;8.092;2023-03-03T08:38:35;99867.28;;;4.13;68.01
68859;BME280;55864;49.238;8.092;2023-03-03T08:40:36;99870.91;;;4.25;67.22
68859;BME280;55864;49.238;8.092;2023-03-03T08:42:38;99870.44;;;4.46;68.30
68859;BME280;55864;49.238;8.092;2023-03-03T08:44:38;99866.34;;;4.56;66.84
68859;BME280;55864;49.238;8.092;2023-03-03T08:46:39;99871.75;;;4.53;66.48
68859;BME280;55864;49.238;8.092;2023-03-03T08:48:40;99878.81;;;4.51;67.47
68859;BME280;55864;49.238;8.092;2023-03-03T08:50:41;99881.94;;;4.70;67.00
68859;BME280;55864;49.238;8.092;2023-03-03T08:52:41;99884.44;;;4.72;65.94
68859;BME280;55864;49.238;8.092;2023-03-03T08:54:42;99883.00;;;4.95;66.35
68859;BME280;55864;49.238;8.092;2023-03-03T08:56:43;99887.69;;;5.16;66.46
68859;BME280;55864;49.238;8.092;2023-03-03T08:58:45;99897.13;;;5.05;66.76
68859;BME280;55864;49.238;8.092;2023-03-03T09:00:45;99893.94;;;5.14;66.51
68859;BME280;55864;49.238;8.092;2023-03-03T09:02:46;99900.47;;;5.07;66.21
68859;BME280;55864;49.238;8.092;2023-03-03T09:04:47;99895.06;;;5.36;65.19
68859;BME280;55864;49.238;8.092;2023-03-03T09:06:47;99893.66;;;5.45;65.15
68859;BME280;55864;49.238;8.092;2023-03-03T09:08:48;99897.25;;;5.30;65.36
68859;BME280;55864;49.238;8.092;2023-03-03T09:10:48;99904.38;;;5.53;65.36
68859;BME280;55864;49.238;8.092;2023-03-03T09:12:49;99907.72;;;5.55;65.51
68859;BME280;55864;49.238;8.092;2023-03-03T09:14:51;99909.56;;;5.80;64.09
68859;BME280;55864;49.238;8.092;2023-03-03T09:16:53;99913.97;;;5.79;63.76
68859;BME280;55864;49.238;8.092;2023-03-03T09:18:54;99915.72;;;5.79;64.38
68859;BME280;55864;49.238;8.092;2023-03-03T09:20:54;99907.06;;;5.78;64.08
68859;BME280;55864;49.238;8.092;2023-03-03T09:22:55;99907.31;;;5.88;64.11
68859;BME280;55864;49.238;8.092;2023-03-03T09:24:57;99908.28;;;5.87;63.75
68859;BME280;55864;49.238;8.092;2023-03-03T09:26:59;99901.09;;;5.90;64.09
68859;BME280;55864;49.238;8.092;2023-03-03T09:29:10;99907.22;;;5.89;63.29
68859;BME280;55864;49.238;8.092;2023-03-03T09:31:25;99901.47;;;5.84;64.30
68859;BME280;55864;49.238;8.092;2023-03-03T09:33:28;99909.56;;;5.80;63.76
68859;BME280;55864;49.238;8.092;2023-03-03T09:35:33;99907.06;;;5.78;63.84
68859;BME280;55864;49.238;8.092;2023-03-03T09:37:36;99905.19;;;5.80;64.25
68859;BME280;55864;49.238;8.092;2023-03-03T09:39:36;99907.16;;;5.77;64.95
68859;BME280;55864;49.238;8.092;2023-03-03T09:42:05;99917.59;;;5.77;64.13
68859;BME280;55864;49.238;8.092;2023-03-03T09:46:39;99920.94;;;5.79;64.14
68859;BME280;55864;49.238;8.092;2023-03-03T09:48:51;99922.69;;;5.78;63.96
68859;BME280;55864;49.238;8.092;2023-03-03T09:51:05;99916.75;;;5.76;63.70
68859;BME280;55864;49.238;8.092;2023-03-03T09:53:18;99912.78;;;6.22;64.16
68859;BME280;55864;49.238;8.092;2023-03-03T09:55:33;99916.03;;;6.38;62.76
68859;BME280;55864;49.238;8.092;2023-03-03T09:57:48;99918.22;;;6.32;62.08
68859;BME280;55864;49.238;8.092;2023-03-03T10:00:18;99919.06;;;6.45;61.83
68859;BME280;55864;49.238;8.092;2023-03-03T10:02:33;99918.94;;;6.72;62.28
68859;BME280;55864;49.238;8.092;2023-03-03T10:04:57;99921.97;;;6.65;61.20
68859;BME280;55864;49.238;8.092;2023-03-03T10:07:17;99922.28;;;6.48;61.12
68859;BME280;55864;49.238;8.092;2023-03-03T10:09:38;99918.31;;;6.43;61.65
68859;BME280;55864;49.238;8.092;2023-03-03T10:11:48;99921.72;;;6.68;61.52
68859;BME280;55864;49.238;8.092;2023-03-03T10:14:10;99916.81;;;6.77;60.81
68859;BME280;55864;49.238;8.092;2023-03-03T10:16:45;99917.25;;;6.83;62.05
68859;BME280;55864;49.238;8.092;2023-03-03T10:18:53;99911.00;;;6.73;60.67
68859;BME280;55864;49.238;8.092;2023-03-03T10:21:02;99918.41;;;6.79;59.63
68859;BME280;55864;49.238;8.092;2023-03-03T10:23:11;99917.44;;;6.80;59.60
68859;BME280;55864;49.238;8.092;2023-03-03T10:25:21;99916.38;;;6.95;59.79
68859;BME280;55864;49.238;8.092;2023-03-03T10:27:37;99924.19;;;6.95;59.69
68859;BME280;55864;49.238;8.092;2023-03-03T10:29:49;99925.34;;;7.04;59.99
68859;BME280;55864;49.238;8.092;2023-03-03T10:32:06;99923.72;;;7.14;58.94
68859;BME280;55864;49.238;8.092;2023-03-03T10:34:23;99926.50;;;7.36;59.08
68859;BME280;55864;49.238;8.092;2023-03-03T10:36:42;99923.91;;;7.23;58.59
68859;BME280;55864;49.238;8.092;2023-03-03T10:38:53;99920.34;;;7.48;57.34
68859;BME280;55864;49.238;8.092;2023-03-03T10:41:17;99922.63;;;7.76;56.06
68859;BME280;55864;49.238;8.092;2023-03-03T10:43:51;99926.75;;;7.44;56.25
68859;BME280;55864;49.238;8.092;2023-03-03T10:46:14;99937.50;;;7.28;57.08
68859;BME280;55864;49.238;8.092;2023-03-03T10:48:32;99932.75;;;7.57;56.89
68859;BME280;55864;49.238;8.092;2023-03-03T10:50:49;99938.03;;;7.44;56.83
68859;BME280;55864;49.238;8.092;2023-03-03T10:53:00;99942.91;;;7.38;56.23
68859;BME280;55864;49.238;8.092;2023-03-03T10:55:16;99934.34;;;7.36;55.75
68859;BME280;55864;49.238;8.092;2023-03-03T10:57:23;99932.16;;;7.53;54.79
68859;BME280;55864;49.238;8.092;2023-03-03T10:59:38;99941.44;;;7.34;54.67
68859;BME280;55864;49.238;8.092;2023-03-03T11:01:48;99936.72;;;7.63;55.05
68859;BME280;55864;49.238;8.092;2023-03-03T11:04:05;99942.31;;;7.69;56.04
68859;BME280;55864;49.238;8.092;2023-03-03T11:06:14;99932.88;;;7.55;55.27
68859;BME280;55864;49.238;8.092;2023-03-03T11:08:21;99930.25;;;7.55;55.13
68859;BME280;55864;49.238;8.092;2023-03-03T11:10:45;99937.34;;;7.66;54.99
68859;BME280;55864;49.238;8.092;2023-03-03T11:12:55;99929.56;;;7.64;55.31
68859;BME280;55864;49.238;8.092;2023-03-03T11:15:28;99925.19;;;7.65;55.00
68859;BME280;55864;49.238;8.092;2023-03-03T11:17:44;99920.81;;;7.66;54.28
68859;BME280;55864;49.238;8.092;2023-03-03T11:20:02;99914.63;;;7.67;54.49